Time;durP1;ratioP1;P1;durP2;ratioP2;P2;SDS_P1;SDS_P2;PMS_P1;PMS_P2;Temp;Humidity;BMP_temperature;BMP_pressure;BME280_temperature;BME280_humidity;BME280_pressure;Samples;Min_cycle;Max_cycle;Signal;HPM_P1;HPM_P2
2023/03/13 00:01:29;;;;;;;0.45;0.45;;;;;;;11.23;100.00;97555.97;4978893;28;20435;-86
2023/03/13 00:03:55;;;;;;;0.45;0.45;;;;;;;11.19;100.00;97565.63;4969474;28;20508;-82
2023/03/13 00:06:32;;;;;;;0.40;0.40;;;;;;;11.16;100.00;97547.28;4978764;28;20042;-81
2023/03/13 00:09:00;;;;;;;0.40;0.40;;;;;;;11.28;100.00;97565.94;4978866;28;20104;-82
2023/03/13 00:11:27;;;;;;;0.50;0.50;;;;;;;11.22;100.00;97548.97;4962761;28;20046;-81
2023/03/13 00:13:56;;;;;;;0.50;0.50;;;;;;;11.37;100.00;97569.75;4963598;28;20035;-84
2023/03/13 00:16:22;;;;;;;0.50;0.50;;;;;;;11.42;100.00;97571.69;4963293;28;20072;-81
2023/03/13 00:18:50;;;;;;;0.40;0.40;;;;;;;11.40;100.00;97558.47;4980579;28;20030;-81
2023/03/13 00:21:17;;;;;;;1.38;0.52;;;;;;;11.41;100.00;97570.88;4964788;28;20032;-81
2023/03/13 00:23:44;;;;;;;0.40;0.40;;;;;;;11.37;100.00;97553.63;4979269;28;20026;-82
2023/03/13 00:26:13;;;;;;;0.75;0.63;;;;;;;11.30;100.00;97536.09;4978454;28;20117;-82
2023/03/13 00:28:40;;;;;;;1.38;0.55;;;;;;;11.27;100.00;97540.09;4994588;28;20036;-81
2023/03/13 00:31:07;;;;;;;1.13;0.52;;;;;;;11.19;100.00;97532.53;4978165;28;20404;-82
2023/03/13 00:33:34;;;;;;;0.40;0.40;;;;;;;11.13;100.00;97547.00;4994007;28;20548;-81
2023/03/13 00:36:06;;;;;;;0.40;0.40;;;;;;;11.10;100.00;97544.84;4962555;28;20026;-82
2023/03/13 00:38:33;;;;;;;0.50;0.47;;;;;;;10.95;100.00;97516.75;4994942;28;20044;-81
2023/03/13 00:41:11;;;;;;;0.50;0.50;;;;;;;10.93;100.00;97532.34;4961988;28;20045;-82
2023/03/13 00:43:41;;;;;;;3.00;0.60;;;;;;;10.87;100.00;97529.88;4963624;28;20050;-81
2023/03/13 00:46:09;;;;;;;1.27;0.65;;;;;;;10.84;100.00;97527.69;4961504;28;20041;-81
2023/03/13 00:48:35;;;;;;;0.50;0.50;;;;;;;10.75;100.00;97495.94;4962272;28;20026;-81
2023/03/13 00:51:02;;;;;;;0.30;0.30;;;;;;;10.92;100.00;97525.34;4961376;28;20125;-81
2023/03/13 00:53:27;;;;;;;0.30;0.30;;;;;;;10.91;100.00;97494.16;4977928;28;20205;-81
2023/03/13 00:56:04;;;;;;;0.47;0.47;;;;;;;11.02;100.00;97505.78;4994324;28;20026;-84
2023/03/13 00:58:34;;;;;;;0.40;0.40;;;;;;;11.07;100.00;97503.16;4978115;28;20504;-84
2023/03/13 01:01:06;;;;;;;0.40;0.40;;;;;;;11.03;100.00;97482.41;4977902;28;20516;-84
2023/03/13 01:03:32;;;;;;;0.40;0.40;;;;;;;10.89;100.00;97472.09;4978222;28;20543;-81
2023/03/13 01:05:59;;;;;;;0.40;0.40;;;;;;;10.77;100.00;97452.69;4977604;28;20030;-81
2023/03/13 01:08:33;;;;;;;0.40;0.40;;;;;;;10.73;100.00;97468.50;4978502;28;20117;-80
2023/03/13 01:11:20;;;;;;;0.40;0.40;;;;;;;10.72;100.00;97468.78;4992605;28;20046;-83
2023/03/13 01:13:46;;;;;;;0.77;0.77;;;;;;;10.66;100.00;97459.84;4993607;28;20088;-80
2023/03/13 01:16:18;;;;;;;0.45;0.45;;;;;;;10.66;100.00;97451.78;4961668;28;20199;-81
2023/03/13 01:18:53;;;;;;;0.43;0.43;;;;;;;10.71;100.00;97453.69;4993526;28;20034;-83
2023/03/13 01:21:19;;;;;;;;;;;;;;;10.72;100.00;97448.06;4977976;28;20186;-81
2023/03/13 01:23:48;;;;;;;0.40;0.40;;;;;;;10.63;100.00;97432.69;4961862;28;20336;-81
2023/03/13 01:26:14;;;;;;;0.40;0.40;;;;;;;10.63;100.00;97419.25;4976863;28;20041;-80
2023/03/13 01:28:40;;;;;;;0.50;0.50;;;;;;;10.68;100.00;97424.66;4977490;28;20212;-81
2023/03/13 01:31:22;;;;;;;0.30;0.30;;;;;;;10.48;100.00;97393.91;4993305;28;20117;-82
2023/03/13 01:33:51;;;;;;;0.40;0.40;;;;;;;10.62;100.00;97409.56;4993512;28;20038;-80
2023/03/13 01:36:17;;;;;;;0.30;0.30;;;;;;;10.59;100.00;97407.41;4977199;28;20042;-80
2023/03/13 01:38:47;;;;;;;0.40;0.40;;;;;;;10.54;100.00;97390.19;4993734;28;20117;-81
2023/03/13 01:41:16;;;;;;;0.40;0.40;;;;;;;10.52;100.00;97391.50;4977001;28;20391;-80
2023/03/13 01:43:42;;;;;;;0.38;0.38;;;;;;;10.49;100.00;97387.44;4960913;28;20366;-80
2023/03/13 01:46:19;;;;;;;0.40;0.40;;;;;;;10.53;100.00;97385.06;4992843;28;20065;-82
2023/03/13 01:48:52;;;;;;;0.40;0.40;;;;;;;10.53;100.00;97367.06;4977691;28;20027;-80
2023/03/13 01:51:40;;;;;;;0.40;0.40;;;;;;;10.56;100.00;97377.31;4993427;28;20042;-80
2023/03/13 01:54:19;;;;;;;0.32;0.32;;;;;;;10.60;100.00;97364.16;4961181;28;20125;-81
2023/03/13 01:56:58;;;;;;;0.30;0.30;;;;;;;10.63;100.00;97366.31;4946733;28;20065;-80
2023/03/13 01:59:30;;;;;;;0.40;0.40;;;;;;;10.67;100.00;97361.25;4961265;28;20042;-80
2023/03/13 02:01:58;;;;;;;0.30;0.30;;;;;;;10.71;100.00;97367.72;4960751;28;20042;-79
2023/03/13 02:04:26;;;;;;;0.40;0.40;;;;;;;10.59;100.00;97361.75;4960484;28;20498;-81
2023/03/13 02:06:55;;;;;;;0.50;0.50;;;;;;;10.41;100.00;97353.03;4976488;28;20101;-81
2023/03/13 02:09:23;;;;;;;0.40;0.40;;;;;;;10.40;100.00;97356.78;4975886;28;20030;-82
2023/03/13 02:12:09;;;;;;;0.30;0.30;;;;;;;10.30;100.00;97349.44;4960928;28;20034;-83
2023/03/13 02:14:42;;;;;;;0.40;0.40;;;;;;;10.26;100.00;97350.19;4992894;28;20069;-82
2023/03/13 02:17:08;;;;;;;0.40;0.40;;;;;;;10.20;100.00;97341.28;4976667;28;20042;-82
2023/03/13 02:19:40;;;;;;;0.40;0.40;;;;;;;10.22;100.00;97343.72;4976836;28;20061;-82
2023/03/13 02:22:11;;;;;;;0.32;0.32;;;;;;;10.21;100.00;97326.78;4992607;28;20150;-82
2023/03/13 02:25:03;;;;;;;0.40;0.40;;;;;;;10.21;100.00;97328.66;4992574;28;20035;-82
2023/03/13 02:27:29;;;;;;;0.40;0.40;;;;;;;10.17;100.00;97303.41;4992782;28;20400;-82
2023/03/13 02:29:55;;;;;;;0.30;0.30;;;;;;;10.23;100.00;97313.13;4960652;28;20042;-82
2023/03/13 02:32:21;;;;;;;0.43;0.43;;;;;;;10.25;100.00;97306.41;4976137;28;20040;-82
2023/03/13 02:34:49;;;;;;;0.40;0.40;;;;;;;10.26;100.00;97296.47;4944466;28;20089;-81
2023/03/13 02:37:17;;;;;;;0.40;0.40;;;;;;;10.27;100.00;97295.44;4992070;28;20041;-85
2023/03/13 02:39:45;;;;;;;0.40;0.40;;;;;;;10.24;100.00;97286.03;4960324;28;20038;-82
2023/03/13 02:42:16;;;;;;;0.40;0.40;;;;;;;10.19;100.00;97272.56;4992555;28;20057;-81
2023/03/13 02:44:45;;;;;;;0.30;0.30;;;;;;;10.24;100.00;97282.50;4976763;28;20045;-82
2023/03/13 02:47:11;;;;;;;0.35;0.35;;;;;;;10.26;100.00;97280.38;4976003;28;20030;-82
2023/03/13 02:49:37;;;;;;;0.30;0.30;;;;;;;10.24;100.00;97274.44;4976900;28;20031;-82
2023/03/13 02:52:40;;;;;;;0.40;0.40;;;;;;;10.26;100.00;97259.69;4977221;28;20421;-82
2023/03/13 02:55:11;;;;;;;0.40;0.40;;;;;;;10.25;100.00;97266.16;4976564;28;20564;-82
2023/03/13 02:57:37;;;;;;;0.40;0.40;;;;;;;10.20;100.00;97241.94;4976854;28;20042;-82
2023/03/13 03:00:06;;;;;;;0.40;0.40;;;;;;;10.24;100.00;97240.38;4960646;28;20037;-82
2023/03/13 03:02:31;;;;;;;0.30;0.30;;;;;;;10.16;100.00;97229.28;4960762;28;20476;-82
2023/03/13 03:04:58;;;;;;;0.40;0.40;;;;;;;10.23;100.00;97249.47;4976371;28;20115;-83
2023/03/13 03:07:25;;;;;;;0.40;0.40;;;;;;;10.24;100.00;97255.66;4976215;28;20050;-83
2023/03/13 03:09:51;;;;;;;0.40;0.40;;;;;;;10.22;100.00;97239.00;4992195;28;20049;-86
2023/03/13 03:12:17;;;;;;;0.95;0.73;;;;;;;10.16;100.00;97248.91;4992692;28;20038;-81
2023/03/13 03:14:43;;;;;;;7.07;1.05;;;;;;;10.09;100.00;97254.50;4993288;28;20400;-84
2023/03/13 03:17:08;;;;;;;0.52;0.50;;;;;;;9.94;100.00;97243.66;4979122;28;20504;-81
2023/03/13 03:19:35;;;;;;;1.17;0.52;;;;;;;9.78;100.00;97236.56;4997397;28;20041;-81
2023/03/13 03:22:00;;;;;;;0.40;0.40;;;;;;;9.70;100.00;97237.84;4979858;28;20038;-82
2023/03/13 03:24:31;;;;;;;0.63;0.50;;;;;;;9.54;100.00;97231.53;4979471;28;20031;-81
2023/03/13 03:26:56;;;;;;;0.35;0.35;;;;;;;9.43;100.00;97232.53;4963841;28;20065;-82
2023/03/13 03:29:23;;;;;;;0.40;0.40;;;;;;;9.35;100.00;97227.63;4995689;28;20042;-82
2023/03/13 03:31:49;;;;;;;0.40;0.40;;;;;;;9.25;100.00;97222.97;4963587;28;20476;-81
2023/03/13 03:34:17;;;;;;;0.40;0.40;;;;;;;9.28;100.00;97221.66;4996783;28;20030;-82
2023/03/13 03:36:46;;;;;;;0.40;0.40;;;;;;;9.27;100.00;97212.81;4995630;28;20030;-82
2023/03/13 03:39:15;;;;;;;0.40;0.40;;;;;;;9.25;100.00;97212.25;4963509;28;20066;-82
2023/03/13 03:41:41;;;;;;;0.40;0.40;;;;;;;9.09;100.00;97186.38;4979235;28;20109;-82
2023/03/13 03:44:06;;;;;;;0.40;0.40;;;;;;;9.18;100.00;97195.56;4995334;28;20048;-81
2023/03/13 03:46:32;;;;;;;0.30;0.30;;;;;;;9.15;100.00;97191.50;4995213;28;20461;-83
2023/03/13 03:48:58;;;;;;;0.40;0.40;;;;;;;9.10;100.00;97183.44;4995064;28;20500;-81
2023/03/13 03:51:23;;;;;;;0.40;0.40;;;;;;;9.06;100.00;97187.69;4995473;28;20397;-81
2023/03/13 03:53:49;;;;;;;0.40;0.40;;;;;;;8.98;100.00;97172.88;4979229;28;20041;-81
2023/03/13 03:56:15;;;;;;;0.45;0.45;;;;;;;8.93;100.00;97180.06;4978917;28;20058;-84
2023/03/13 03:58:41;;;;;;;0.40;0.40;;;;;;;8.71;100.00;97164.03;4996114;28;20437;-82
2023/03/13 04:01:06;;;;;;;0.40;0.40;;;;;;;8.80;100.00;97179.38;4979032;28;20089;-82
2023/03/13 04:03:32;;;;;;;0.40;0.40;;;;;;;8.74;100.00;97179.59;4978777;28;20042;-82
2023/03/13 04:06:01;;;;;;;0.30;0.30;;;;;;;8.79;100.00;97190.38;4995167;28;20042;-81
2023/03/13 04:08:29;;;;;;;0.30;0.30;;;;;;;8.72;100.00;97189.75;4979335;28;20035;-81
2023/03/13 04:10:55;;;;;;;0.40;0.40;;;;;;;8.67;100.00;97174.44;4978465;28;20031;-81
2023/03/13 04:13:20;;;;;;;0.35;0.35;;;;;;;8.67;100.00;97182.47;4962901;28;20038;-81
2023/03/13 04:15:47;;;;;;;0.40;0.40;;;;;;;8.68;100.00;97176.06;4962882;28;20069;-81
2023/03/13 04:18:13;;;;;;;0.40;0.40;;;;;;;8.68;100.00;97186.78;4978509;28;20037;-80
2023/03/13 04:20:38;;;;;;;0.40;0.40;;;;;;;8.67;100.00;97169.06;4978682;28;20030;-81
2023/03/13 04:23:08;;;;;;;0.40;0.40;;;;;;;8.76;100.00;97180.16;4978490;28;20473;-83
2023/03/13 04:25:34;;;;;;;0.43;0.43;;;;;;;8.77;100.00;97171.06;4962286;28;20046;-81
2023/03/13 04:28:00;;;;;;;0.35;0.35;;;;;;;8.82;100.00;97181.81;4994228;28;20030;-81
2023/03/13 04:30:29;;;;;;;0.40;0.40;;;;;;;8.85;100.00;97170.59;4994375;28;20034;-81
2023/03/13 04:32:59;;;;;;;0.40;0.40;;;;;;;8.75;100.00;97163.25;4995402;28;20041;-83
2023/03/13 04:35:25;;;;;;;0.40;0.40;;;;;;;8.70;100.00;97168.56;4961984;28;20033;-83
2023/03/13 04:37:51;;;;;;;0.40;0.40;;;;;;;8.63;100.00;97161.81;4978032;28;20061;-84
2023/03/13 04:40:20;;;;;;;0.32;0.32;;;;;;;8.55;100.00;97165.75;4978482;28;20069;-81
2023/03/13 04:42:46;;;;;;;0.38;0.38;;;;;;;8.54;100.00;97169.47;4994164;28;20042;-83
2023/03/13 04:45:11;;;;;;;0.40;0.40;;;;;;;8.44;100.00;97159.47;4978253;28;20400;-81
2023/03/13 04:47:42;;;;;;;0.40;0.40;;;;;;;8.52;100.00;97172.41;4978774;28;20100;-81
2023/03/13 04:50:08;;;;;;;0.40;0.40;;;;;;;8.48;100.00;97157.88;4978030;28;20481;-82
2023/03/13 04:52:34;;;;;;;0.40;0.40;;;;;;;8.53;100.00;97160.63;4978316;28;20116;-81
2023/03/13 04:55:01;;;;;;;0.30;0.30;;;;;;;8.58;100.00;97167.91;4993948;28;20503;-81
2023/03/13 04:57:26;;;;;;;0.40;0.40;;;;;;;8.60;100.00;97163.13;4993878;28;20030;-81
2023/03/13 04:59:55;;;;;;;0.40;0.40;;;;;;;8.64;100.00;97166.91;4994298;28;20096;-81
2023/03/13 05:02:21;;;;;;;0.40;0.40;;;;;;;8.65;100.00;97157.78;4977756;28;20038;-81
2023/03/13 05:04:48;;;;;;;0.40;0.40;;;;;;;8.68;100.00;97164.50;4961982;28;20054;-82
2023/03/13 05:07:13;;;;;;;0.40;0.40;;;;;;;8.70;100.00;97165.09;4993889;28;20034;-81
2023/03/13 05:09:39;;;;;;;0.40;0.40;;;;;;;8.76;100.00;97159.53;4993170;28;20046;-81
2023/03/13 05:12:05;;;;;;;0.40;0.40;;;;;;;8.79;100.00;97156.34;4976958;28;20061;-82
2023/03/13 05:14:31;;;;;;;0.40;0.40;;;;;;;8.84;100.00;97166.31;4977940;28;20380;-82
2023/03/13 05:16:57;;;;;;;0.40;0.40;;;;;;;8.85;100.00;97159.88;4995077;28;20038;-81
2023/03/13 05:19:23;;;;;;;0.40;0.40;;;;;;;8.73;100.00;97127.06;4961019;28;20382;-81
2023/03/13 05:21:51;;;;;;;0.40;0.40;;;;;;;8.81;100.00;97156.09;4977616;28;20046;-81
2023/03/13 05:24:16;;;;;;;0.40;0.40;;;;;;;8.78;100.00;97143.19;4977719;28;20035;-82
2023/03/13 05:26:42;;;;;;;0.40;0.40;;;;;;;8.97;100.00;97167.75;4961066;28;20033;-82
2023/03/13 05:29:07;;;;;;;0.40;0.40;;;;;;;8.95;100.00;97151.16;4961235;28;20126;-82
2023/03/13 05:31:33;;;;;;;0.40;0.40;;;;;;;9.05;100.00;97158.44;4960797;28;20436;-82
2023/03/13 05:33:58;;;;;;;0.40;0.40;;;;;;;9.13;100.00;97166.03;4976893;28;20049;-81
2023/03/13 05:36:24;;;;;;;0.40;0.40;;;;;;;9.12;100.00;97167.09;4961214;28;20026;-83
2023/03/13 05:38:51;;;;;;;0.30;0.30;;;;;;;9.05;100.00;97153.94;4960997;28;20130;-81
2023/03/13 05:41:19;;;;;;;0.50;0.50;;;;;;;9.18;100.00;97174.94;4977639;28;20065;-81
2023/03/13 05:43:47;;;;;;;0.30;0.30;;;;;;;9.17;100.00;97167.94;4962062;28;20034;-82
2023/03/13 05:46:15;;;;;;;0.40;0.40;;;;;;;9.19;100.00;97165.84;4994015;28;20037;-81
2023/03/13 05:48:44;;;;;;;1.45;0.43;;;;;;;9.26;100.00;97165.59;4993563;28;20057;-81
2023/03/13 05:51:10;;;;;;;0.40;0.40;;;;;;;9.34;100.00;97175.88;4961226;28;20041;-83
2023/03/13 05:53:35;;;;;;;0.40;0.40;;;;;;;9.27;100.00;97135.06;4960636;28;20034;-82
2023/03/13 05:56:03;;;;;;;0.40;0.40;;;;;;;9.34;100.00;97162.47;4976835;28;20034;-81
2023/03/13 05:58:29;;;;;;;0.40;0.40;;;;;;;9.33;100.00;97170.78;4977307;28;20477;-82
2023/03/13 06:01:15;;;;;;;0.40;0.40;;;;;;;9.34;100.00;97167.00;4992944;28;20173;-82
2023/03/13 06:03:44;;;;;;;0.40;0.40;;;;;;;9.32;100.00;97161.13;4992938;28;20565;-81
2023/03/13 06:06:09;;;;;;;0.40;0.40;;;;;;;9.29;100.00;97166.97;4993880;28;20030;-81
2023/03/13 06:08:35;;;;;;;0.50;0.50;;;;;;;9.29;100.00;97170.47;4976936;28;20037;-82
2023/03/13 06:11:02;;;;;;;0.68;0.68;;;;;;;9.20;100.00;97154.03;4993328;28;20030;-82
2023/03/13 06:13:28;;;;;;;0.40;0.40;;;;;;;9.31;100.00;97167.53;4992800;28;20110;-81
2023/03/13 06:15:55;;;;;;;0.40;0.40;;;;;;;9.28;100.00;97163.47;4961038;28;20038;-81
2023/03/13 06:18:21;;;;;;;0.40;0.40;;;;;;;9.30;100.00;97166.72;4993056;28;20034;-82
2023/03/13 06:20:48;;;;;;;0.75;0.40;;;;;;;9.31;100.00;97162.16;4976830;28;20389;-82
2023/03/13 06:23:13;;;;;;;0.40;0.40;;;;;;;9.24;100.00;97149.00;4993071;28;20470;-81
2023/03/13 06:25:39;;;;;;;0.40;0.40;;;;;;;9.35;100.00;97171.31;4961023;28;20034;-81
2023/03/13 06:28:04;;;;;;;0.93;0.50;;;;;;;9.36;100.00;97175.63;4976733;28;20026;-81
2023/03/13 06:30:30;;;;;;;0.40;0.40;;;;;;;9.35;100.00;97168.66;4977087;28;20034;-82
2023/03/13 06:32:57;;;;;;;0.30;0.30;;;;;;;9.35;100.00;97152.56;4992665;28;20492;-82
2023/03/13 06:35:23;;;;;;;0.40;0.40;;;;;;;9.33;100.00;97163.53;4993017;28;20042;-82
2023/03/13 06:37:48;;;;;;;0.40;0.40;;;;;;;9.33;100.00;97166.22;4976845;28;20038;-82
2023/03/13 06:40:14;;;;;;;0.40;0.40;;;;;;;9.33;100.00;97165.41;4993973;28;20034;-82
2023/03/13 06:42:40;;;;;;;0.40;0.40;;;;;;;9.38;100.00;97162.78;4976240;28;20049;-81
2023/03/13 06:45:06;;;;;;;0.63;0.43;;;;;;;9.35;100.00;97169.44;4993723;28;20500;-81
2023/03/13 06:47:32;;;;;;;0.35;0.35;;;;;;;9.29;100.00;97156.25;4992877;28;20034;-82
2023/03/13 06:49:58;;;;;;;0.40;0.40;;;;;;;9.39;100.00;97177.78;4993919;28;20418;-82
2023/03/13 06:52:24;;;;;;;0.40;0.40;;;;;;;9.38;100.00;97174.28;4980539;28;20507;-83
2023/03/13 06:54:50;;;;;;;0.40;0.40;;;;;;;9.37;100.00;97163.84;4996265;28;20038;-82
2023/03/13 06:57:15;;;;;;;0.40;0.40;;;;;;;9.35;100.00;97171.31;4980389;28;20033;-82
2023/03/13 06:59:41;;;;;;;0.40;0.40;;;;;;;9.31;100.00;97178.25;4995964;28;20388;-82
2023/03/13 07:02:10;;;;;;;0.40;0.40;;;;;;;9.32;100.00;97169.16;4996083;28;20030;-83
2023/03/13 07:04:35;;;;;;;0.40;0.40;;;;;;;9.27;100.00;97167.25;4980265;28;20124;-81
2023/03/13 07:07:01;;;;;;;0.50;0.50;;;;;;;9.32;100.00;97169.97;4980238;28;20062;-81
2023/03/13 07:09:27;;;;;;;0.40;0.40;;;;;;;9.32;100.00;97159.25;4980077;28;20049;-84
2023/03/13 07:11:53;;;;;;;0.40;0.40;;;;;;;9.31;100.00;97168.34;4979903;28;20034;-82
2023/03/13 07:14:21;;;;;;;0.40;0.40;;;;;;;9.33;100.00;97178.81;4996461;28;20037;-81
2023/03/13 07:16:46;;;;;;;0.30;0.30;;;;;;;9.26;100.00;97168.28;4980107;28;20042;-81
2023/03/13 07:19:13;;;;;;;0.45;0.45;;;;;;;9.34;100.00;97180.41;4996875;28;20041;-82
2023/03/13 07:21:40;;;;;;;0.47;0.40;;;;;;;9.36;100.00;97179.09;4947888;28;20037;-82
2023/03/13 07:24:06;;;;;;;0.40;0.40;;;;;;;9.36;100.00;97186.34;4979947;28;20042;-82
2023/03/13 07:26:32;;;;;;;0.40;0.40;;;;;;;9.38;100.00;97186.91;4979644;28;20436;-82
2023/03/13 07:28:57;;;;;;;0.40;0.40;;;;;;;9.36;100.00;97186.34;4963542;28;20129;-83
2023/03/13 07:31:23;;;;;;;0.40;0.40;;;;;;;9.38;100.00;97190.38;4995508;28;20461;-82
2023/03/13 07:33:53;;;;;;;0.40;0.40;;;;;;;9.39;100.00;97185.81;4979411;28;20077;-82
2023/03/13 07:36:18;;;;;;;0.40;0.40;;;;;;;9.36;100.00;97186.34;4980222;28;20037;-84
2023/03/13 07:38:48;;;;;;;0.40;0.40;;;;;;;9.29;100.00;97173.16;4979711;28;20034;-82
2023/03/13 07:41:14;;;;;;;0.50;0.50;;;;;;;9.45;100.00;97200.91;4963190;28;20041;-82
2023/03/13 07:43:40;;;;;;;0.43;0.43;;;;;;;9.35;100.00;97182.84;4994860;28;20035;-84
2023/03/13 07:46:07;;;;;;;0.40;0.40;;;;;;;9.39;100.00;97196.56;4962802;28;20069;-83
2023/03/13 07:48:35;;;;;;;0.63;0.52;;;;;;;9.44;100.00;97207.31;4978560;28;20054;-82
2023/03/13 07:51:01;;;;;;;0.40;0.40;;;;;;;9.41;100.00;97194.44;4994700;28;20509;-83
2023/03/13 07:53:28;;;;;;;0.40;0.40;;;;;;;9.42;100.00;97196.03;4963132;28;20034;-83
2023/03/13 07:55:59;;;;;;;0.30;0.30;;;;;;;9.45;100.00;97201.72;4962907;28;20544;-83
2023/03/13 07:58:27;;;;;;;0.40;0.40;;;;;;;9.43;100.00;97192.31;4994874;28;20038;-83
2023/03/13 08:00:53;;;;;;;0.40;0.40;;;;;;;9.38;100.00;97193.06;4994030;28;20057;-82
2023/03/13 08:03:19;;;;;;;0.40;0.40;;;;;;;9.42;100.00;97190.66;4978584;28;20481;-82
2023/03/13 08:05:45;;;;;;;0.40;0.40;;;;;;;9.49;100.00;97202.00;4978195;28;20034;-82
2023/03/13 08:08:10;;;;;;;0.40;0.40;;;;;;;9.52;100.00;97206.03;4994484;28;20126;-83
2023/03/13 08:10:36;;;;;;;0.40;0.40;;;;;;;9.59;100.00;97207.44;4979032;28;20120;-82
2023/03/13 08:13:02;;;;;;;0.40;0.40;;;;;;;9.63;100.00;97208.56;4994904;28;20038;-82
2023/03/13 08:15:28;;;;;;;0.40;0.40;;;;;;;9.72;100.00;97219.63;4962669;28;20041;-82
2023/03/13 08:17:55;;;;;;;0.43;0.43;;;;;;;9.80;100.00;97215.66;4978175;28;20370;-83
2023/03/13 08:20:21;;;;;;;0.40;0.40;;;;;;;9.87;100.00;97218.91;4995019;28;20045;-82
2023/03/13 08:22:48;;;;;;;0.50;0.50;;;;;;;10.08;100.00;97231.41;4994677;28;20034;-83
2023/03/13 08:25:14;;;;;;;0.60;0.60;;;;;;;10.20;100.00;97225.03;4962891;28;20077;-81
2023/03/13 08:27:39;;;;;;;0.40;0.40;;;;;;;10.22;100.00;97218.34;4978470;28;20066;-82
2023/03/13 08:30:06;;;;;;;0.40;0.40;;;;;;;10.08;100.00;97223.38;4962710;28;20077;-83
2023/03/13 08:32:32;;;;;;;0.40;0.40;;;;;;;9.88;100.00;97217.84;4978654;28;20038;-82
2023/03/13 08:34:58;;;;;;;0.40;0.40;;;;;;;9.82;100.00;97237.69;4978529;28;20032;-85
2023/03/13 08:37:24;;;;;;;0.40;0.40;;;;;;;9.78;100.00;97237.38;4978449;28;20038;-84
2023/03/13 08:39:50;;;;;;;0.40;0.40;;;;;;;9.73;100.00;97233.84;4994561;28;20030;-83
2023/03/13 08:42:15;;;;;;;0.40;0.40;;;;;;;9.72;100.00;97242.97;4979697;28;20088;-82
2023/03/13 08:44:41;;;;;;;0.40;0.40;;;;;;;9.67;100.00;97230.31;4994117;28;20030;-82
2023/03/13 08:47:07;;;;;;;0.40;0.40;;;;;;;9.72;100.00;97226.88;4993956;28;20026;-81
2023/03/13 08:49:33;;;;;;;0.40;0.40;;;;;;;9.95;100.00;97244.47;4978341;28;20068;-82
2023/03/13 08:51:59;;;;;;;0.40;0.40;;;;;;;10.12;100.00;97242.44;4962337;28;20057;-81
2023/03/13 08:54:25;;;;;;;0.40;0.40;;;;;;;10.25;100.00;97249.22;4978243;28;20034;-81
2023/03/13 08:56:50;;;;;;;0.40;0.40;;;;;;;10.25;100.00;97250.03;4962206;28;20148;-81
2023/03/13 08:59:16;;;;;;;0.40;0.40;;;;;;;10.11;100.00;97255.06;4994546;28;20037;-81
2023/03/13 09:01:42;;;;;;;0.40;0.40;;;;;;;9.93;100.00;97252.78;4978397;28;20041;-81
2023/03/13 09:04:08;;;;;;;0.40;0.40;;;;;;;9.80;100.00;97250.53;4978255;28;20038;-82
2023/03/13 09:06:36;;;;;;;0.40;0.40;;;;;;;9.81;100.00;97260.19;4994392;28;20425;-85
2023/03/13 09:09:02;;;;;;;0.40;0.40;;;;;;;9.84;100.00;97263.19;4994009;28;20030;-83
2023/03/13 09:11:28;;;;;;;0.40;0.40;;;;;;;9.86;100.00;97276.34;4994256;28;20034;-83
2023/03/13 09:13:54;;;;;;;0.40;0.40;;;;;;;9.83;100.00;97271.47;4993596;28;20535;-83
2023/03/13 09:16:22;;;;;;;0.45;0.45;;;;;;;9.81;100.00;97257.50;4994159;28;20473;-84
2023/03/13 09:18:49;;;;;;;0.40;0.40;;;;;;;10.02;100.00;97264.63;4994131;28;20066;-86
2023/03/13 09:21:35;;;;;;;0.40;0.40;;;;;;;10.28;100.00;97276.41;4994051;28;20065;-85
2023/03/13 09:24:04;;;;;;;0.50;0.50;;;;;;;10.47;100.00;97276.78;4992837;28;20551;-82
2023/03/13 09:26:30;;;;;;;0.40;0.40;;;;;;;10.71;100.00;97284.41;4993702;28;20034;-82
2023/03/13 09:28:56;;;;;;;0.40;0.40;;;;;;;10.76;100.00;97281.75;4977844;28;20038;-85
2023/03/13 09:31:27;;;;;;;0.40;0.40;;;;;;;10.72;100.00;97288.72;4961418;28;20122;-82
2023/03/13 09:33:53;;;;;;;0.40;0.40;;;;;;;10.66;100.00;97289.75;4993492;28;20035;-82
2023/03/13 09:36:19;;;;;;;0.40;0.40;;;;;;;10.66;100.00;97297.81;4977410;28;20204;-82
2023/03/13 09:38:45;;;;;;;0.40;0.40;;;;;;;10.55;100.00;97294.28;4993251;28;20026;-83
2023/03/13 09:41:22;;;;;;;0.40;0.40;;;;;;;10.45;100.00;97305.78;4976806;28;20033;-83
2023/03/13 09:44:07;;;;;;;0.40;0.40;;;;;;;10.37;100.00;97300.88;4993462;28;20026;-83
2023/03/13 09:46:36;;;;;;;0.40;0.40;;;;;;;10.47;100.00;97289.41;4977262;28;20153;-82
2023/03/13 09:49:41;;;;;;;0.40;0.40;;;;;;;10.48;100.00;97291.84;4993137;28;20508;-82
2023/03/13 09:52:15;;;;;;;0.40;0.40;;;;;;;10.90;100.00;97306.25;4974130;28;20517;-82
2023/03/13 09:54:49;;;;;;;0.45;0.45;;;;;;;11.48;100.00;97308.88;4976641;28;20033;-82
2023/03/13 09:57:58;;;;;;;0.40;0.40;;;;;;;11.92;100.00;97309.22;4977041;28;20409;-82
2023/03/13 10:00:34;;;;;;;0.50;0.50;;;;;;;12.04;100.00;97306.25;4986184;28;20038;-82
2023/03/13 10:03:15;;;;;;;0.50;0.50;;;;;;;12.22;100.00;97315.69;4992879;28;20117;-81
2023/03/13 10:05:49;;;;;;;0.40;0.40;;;;;;;12.08;100.00;97310.03;4993022;28;20054;-83
2023/03/13 10:08:20;;;;;;;0.40;0.40;;;;;;;11.85;100.00;97319.41;4992725;28;20125;-84
2023/03/13 10:11:07;;;;;;;0.50;0.50;;;;;;;11.69;100.00;97307.81;4993131;28;20080;-83
2023/03/13 10:13:48;;;;;;;0.40;0.40;;;;;;;11.93;100.00;97320.78;4976377;28;20039;-83
2023/03/13 10:16:19;;;;;;;0.40;0.40;;;;;;;12.15;100.00;97309.78;4976949;28;20073;-81
2023/03/13 10:18:52;;;;;;;0.40;0.40;;;;;;;12.42;100.00;97314.84;4977021;28;20037;-82
2023/03/13 10:21:21;;;;;;;0.50;0.50;;;;;;;12.79;100.00;97324.47;4992460;28;20042;-82
2023/03/13 10:24:11;;;;;;;0.50;0.50;;;;;;;12.90;100.00;97340.34;4944727;28;20104;-82
2023/03/13 10:26:37;;;;;;;0.45;0.45;;;;;;;12.55;100.00;97335.84;4993161;28;20109;-81
2023/03/13 10:29:30;;;;;;;0.40;0.40;;;;;;;12.38;100.00;97343.41;4993687;28;20465;-81
2023/03/13 10:31:58;;;;;;;0.60;0.60;;;;;;;12.46;100.00;97342.84;4974071;28;20452;-82
2023/03/13 10:34:26;;;;;;;0.40;0.40;;;;;;;12.53;100.00;97348.78;4992442;28;20031;-83
2023/03/13 10:36:59;;;;;;;0.50;0.50;;;;;;;12.22;100.00;97315.69;4992888;28;20481;-83
2023/03/13 10:39:26;;;;;;;;;;;;;;;12.22;100.00;97343.41;4977208;28;20126;-83
2023/03/13 10:41:57;;;;;;;0.50;0.50;;;;;;;12.06;100.00;97344.50;4976607;28;20248;-83
2023/03/13 10:44:31;;;;;;;0.40;0.40;;;;;;;11.95;100.00;97342.88;4977757;28;20035;-83
2023/03/13 10:47:01;;;;;;;0.50;0.50;;;;;;;11.94;100.00;97350.16;4976701;28;20057;-80
2023/03/13 10:49:27;;;;;;;0.40;0.40;;;;;;;11.75;100.00;97352.53;4976752;28;20046;-81
2023/03/13 10:52:03;;;;;;;0.40;0.40;;;;;;;11.62;100.00;97350.34;4976263;28;20030;-83
2023/03/13 10:54:40;;;;;;;0.50;0.50;;;;;;;11.71;100.00;97343.34;4992382;28;20038;-82
2023/03/13 10:57:25;;;;;;;0.40;0.40;;;;;;;12.27;100.00;97356.88;4977007;28;20066;-81
2023/03/13 10:59:51;;;;;;;0.50;0.50;;;;;;;12.49;100.00;97345.84;4993647;28;20054;-81
2023/03/13 11:02:27;;;;;;;0.50;0.50;;;;;;;12.86;100.00;97357.34;4960236;28;20041;-82
2023/03/13 11:04:54;;;;;;;0.50;0.50;;;;;;;13.15;100.00;97360.22;4992577;28;20030;-82
2023/03/13 11:07:34;;;;;;;0.50;0.50;;;;;;;13.38;100.00;97369.59;4976259;28;20068;-82
2023/03/13 11:10:12;;;;;;;0.50;0.50;;;;;;;13.43;100.00;97350.69;4976604;28;20128;-82
2023/03/13 11:12:44;;;;;;;0.50;0.50;;;;;;;13.49;100.00;97368.44;4992509;28;20030;-81
2023/03/13 11:15:31;;;;;;;0.50;0.50;;;;;;;13.34;100.00;97365.84;4992494;28;20034;-81
2023/03/13 11:18:06;;;;;;;0.57;0.57;;;;;;;13.35;100.00;97365.56;4976401;28;20041;-82
2023/03/13 11:20:35;;;;;;;0.40;0.40;;;;;;;13.16;100.00;97362.63;4960417;28;20041;-81
2023/03/13 11:23:42;;;;;;;0.60;0.60;;;;;;;12.89;100.00;97363.00;4976189;28;20066;-81
2023/03/13 11:26:37;;;;;;;0.40;0.40;;;;;;;12.57;100.00;97368.72;4973304;28;20049;-81
2023/03/13 11:29:33;;;;;;;0.40;0.40;;;;;;;12.66;100.00;97372.47;4975943;28;20058;-80
2023/03/13 11:32:10;;;;;;;0.50;0.50;;;;;;;13.31;100.00;97377.16;4993760;28;20026;-80
2023/03/13 11:34:58;;;;;;;0.50;0.50;;;;;;;14.61;100.00;97375.00;4975994;28;20370;-81
2023/03/13 11:37:23;;;;;;;0.50;0.50;;;;;;;15.29;100.00;97381.31;4995628;28;20034;-80
2023/03/13 11:40:19;;;;;;;0.60;0.60;;;;;;;15.00;100.00;97368.63;4979263;28;20030;-81